sensor_id;sensor_type;location;lat;lon;timestamp;P1;durP1;ratioP1;P2;durP2;ratioP2
18280;SDS011;9266;51.132;17.062;2022-12-18T00:00:46;47.53;;;23.90;;
18280;SDS011;9266;51.132;17.062;2022-12-18T00:03:13;51.00;;;24.07;;
18280;SDS011;9266;51.132;17.062;2022-12-18T00:05:45;51.70;;;21.93;;
18280;SDS011;9266;51.132;17.062;2022-12-18T00:08:13;45.50;;;21.50;;
18280;SDS011;9266;51.132;17.062;2022-12-18T00:10:41;45.07;;;20.60;;
18280;SDS011;9266;51.132;17.062;2022-12-18T00:13:08;47.53;;;21.40;;
18280;SDS011;9266;51.132;17.062;2022-12-18T00:15:38;38.00;;;20.33;;
18280;SDS011;9266;51.132;17.062;2022-12-18T00:18:05;45.53;;;23.00;;
18280;SDS011;9266;51.132;17.062;2022-12-18T00:20:35;44.37;;;19.73;;
18280;SDS011;9266;51.132;17.062;2022-12-18T00:23:03;42.17;;;19.77;;
18280;SDS011;9266;51.132;17.062;2022-12-18T00:25:32;44.57;;;20.83;;
18280;SDS011;9266;51.132;17.062;2022-12-18T00:27:59;45.83;;;22.37;;
18280;SDS011;9266;51.132;17.062;2022-12-18T00:30:26;37.53;;;19.87;;
18280;SDS011;9266;51.132;17.062;2022-12-18T00:32:55;44.23;;;19.87;;
18280;SDS011;9266;51.132;17.062;2022-12-18T00:35:22;45.70;;;20.70;;
18280;SDS011;9266;51.132;17.062;2022-12-18T00:37:49;44.00;;;21.03;;
18280;SDS011;9266;51.132;17.062;2022-12-18T00:40:16;47.80;;;21.07;;
18280;SDS011;9266;51.132;17.062;2022-12-18T00:42:43;49.17;;;20.40;;
18280;SDS011;9266;51.132;17.062;2022-12-18T00:45:21;48.73;;;20.33;;
18280;SDS011;9266;51.132;17.062;2022-12-18T00:47:49;45.70;;;21.23;;
18280;SDS011;9266;51.132;17.062;2022-12-18T00:50:17;43.27;;;21.30;;
18280;SDS011;9266;51.132;17.062;2022-12-18T00:52:45;47.07;;;20.70;;
18280;SDS011;9266;51.132;17.062;2022-12-18T00:55:12;48.53;;;21.70;;
18280;SDS011;9266;51.132;17.062;2022-12-18T00:57:39;47.70;;;22.93;;
18280;SDS011;9266;51.132;17.062;2022-12-18T01:00:07;52.07;;;23.13;;
18280;SDS011;9266;51.132;17.062;2022-12-18T01:02:37;53.23;;;21.40;;
18280;SDS011;9266;51.132;17.062;2022-12-18T01:05:04;47.00;;;22.87;;
18280;SDS011;9266;51.132;17.062;2022-12-18T01:07:33;47.70;;;21.23;;
18280;SDS011;9266;51.132;17.062;2022-12-18T01:10:00;48.77;;;20.83;;
18280;SDS011;9266;51.132;17.062;2022-12-18T01:12:27;52.23;;;21.73;;
18280;SDS011;9266;51.132;17.062;2022-12-18T01:14:54;55.60;;;22.57;;
18280;SDS011;9266;51.132;17.062;2022-12-18T01:17:21;45.37;;;21.43;;
18280;SDS011;9266;51.132;17.062;2022-12-18T01:19:49;47.43;;;21.50;;
18280;SDS011;9266;51.132;17.062;2022-12-18T01:22:16;48.43;;;21.73;;
18280;SDS011;9266;51.132;17.062;2022-12-18T01:24:44;46.90;;;23.00;;
18280;SDS011;9266;51.132;17.062;2022-12-18T01:27:11;51.37;;;23.27;;
18280;SDS011;9266;51.132;17.062;2022-12-18T01:29:38;49.97;;;23.63;;
18280;SDS011;9266;51.132;17.062;2022-12-18T01:32:05;42.70;;;21.17;;
18280;SDS011;9266;51.132;17.062;2022-12-18T01:34:32;53.30;;;21.63;;
18280;SDS011;9266;51.132;17.062;2022-12-18T01:37:02;46.67;;;21.17;;
18280;SDS011;9266;51.132;17.062;2022-12-18T01:39:29;44.40;;;22.00;;
18280;SDS011;9266;51.132;17.062;2022-12-18T01:41:59;49.27;;;23.00;;
18280;SDS011;9266;51.132;17.062;2022-12-18T01:44:53;48.13;;;21.47;;
18280;SDS011;9266;51.132;17.062;2022-12-18T01:47:23;44.87;;;20.57;;
18280;SDS011;9266;51.132;17.062;2022-12-18T01:49:53;45.27;;;20.83;;
18280;SDS011;9266;51.132;17.062;2022-12-18T01:52:22;46.77;;;22.50;;
18280;SDS011;9266;51.132;17.062;2022-12-18T01:54:52;50.23;;;22.37;;
18280;SDS011;9266;51.132;17.062;2022-12-18T01:57:22;47.87;;;23.07;;
18280;SDS011;9266;51.132;17.062;2022-12-18T01:59:52;48.97;;;20.60;;
18280;SDS011;9266;51.132;17.062;2022-12-18T02:02:22;50.97;;;21.60;;
18280;SDS011;9266;51.132;17.062;2022-12-18T02:04:49;47.97;;;22.93;;
18280;SDS011;9266;51.132;17.062;2022-12-18T02:07:20;44.33;;;21.67;;
18280;SDS011;9266;51.132;17.062;2022-12-18T02:09:54;43.07;;;20.23;;
18280;SDS011;9266;51.132;17.062;2022-12-18T02:12:29;39.20;;;20.77;;
18280;SDS011;9266;51.132;17.062;2022-12-18T02:15:03;42.03;;;22.13;;
18280;SDS011;9266;51.132;17.062;2022-12-18T02:17:36;43.57;;;20.53;;
18280;SDS011;9266;51.132;17.062;2022-12-18T02:20:08;37.57;;;20.33;;
18280;SDS011;9266;51.132;17.062;2022-12-18T02:22:43;43.83;;;22.50;;
18280;SDS011;9266;51.132;17.062;2022-12-18T02:25:24;45.57;;;21.73;;
18280;SDS011;9266;51.132;17.062;2022-12-18T02:28:04;43.03;;;20.50;;
18280;SDS011;9266;51.132;17.062;2022-12-18T02:30:35;38.90;;;20.70;;
18280;SDS011;9266;51.132;17.062;2022-12-18T02:33:04;41.67;;;19.17;;
18280;SDS011;9266;51.132;17.062;2022-12-18T02:35:33;45.73;;;21.53;;
18280;SDS011;9266;51.132;17.062;2022-12-18T02:38:02;36.33;;;20.47;;
18280;SDS011;9266;51.132;17.062;2022-12-18T02:40:31;39.37;;;18.83;;
18280;SDS011;9266;51.132;17.062;2022-12-18T02:43:06;41.60;;;20.73;;
18280;SDS011;9266;51.132;17.062;2022-12-18T02:45:33;38.30;;;21.07;;
18280;SDS011;9266;51.132;17.062;2022-12-18T02:48:01;39.67;;;19.13;;
18280;SDS011;9266;51.132;17.062;2022-12-18T02:50:30;38.07;;;19.50;;
18280;SDS011;9266;51.132;17.062;2022-12-18T02:53:03;36.93;;;17.83;;
18280;SDS011;9266;51.132;17.062;2022-12-18T02:55:41;43.67;;;19.60;;
18280;SDS011;9266;51.132;17.062;2022-12-18T02:58:24;40.93;;;21.37;;
18280;SDS011;9266;51.132;17.062;2022-12-18T03:00:58;37.93;;;19.43;;
18280;SDS011;9266;51.132;17.062;2022-12-18T03:03:29;40.13;;;20.40;;
18280;SDS011;9266;51.132;17.062;2022-12-18T03:06:01;38.57;;;19.70;;
18280;SDS011;9266;51.132;17.062;2022-12-18T03:08:33;39.10;;;19.17;;
18280;SDS011;9266;51.132;17.062;2022-12-18T03:11:03;45.30;;;20.70;;
18280;SDS011;9266;51.132;17.062;2022-12-18T03:13:36;49.17;;;21.63;;
18280;SDS011;9266;51.132;17.062;2022-12-18T03:16:06;42.13;;;20.93;;
18280;SDS011;9266;51.132;17.062;2022-12-18T03:18:37;41.30;;;20.07;;
18280;SDS011;9266;51.132;17.062;2022-12-18T03:21:08;36.83;;;20.50;;
18280;SDS011;9266;51.132;17.062;2022-12-18T03:23:38;37.57;;;19.20;;
18280;SDS011;9266;51.132;17.062;2022-12-18T03:26:10;41.43;;;20.53;;
18280;SDS011;9266;51.132;17.062;2022-12-18T03:28:43;46.43;;;21.70;;
18280;SDS011;9266;51.132;17.062;2022-12-18T03:31:13;41.83;;;21.43;;
18280;SDS011;9266;51.132;17.062;2022-12-18T03:33:42;42.27;;;20.53;;
18280;SDS011;9266;51.132;17.062;2022-12-18T03:36:13;46.53;;;22.17;;
18280;SDS011;9266;51.132;17.062;2022-12-18T03:38:41;45.53;;;21.43;;
18280;SDS011;9266;51.132;17.062;2022-12-18T03:41:11;41.77;;;22.27;;
18280;SDS011;9266;51.132;17.062;2022-12-18T03:43:47;44.37;;;21.63;;
18280;SDS011;9266;51.132;17.062;2022-12-18T03:46:22;47.80;;;22.27;;
18280;SDS011;9266;51.132;17.062;2022-12-18T03:48:55;47.57;;;22.67;;
18280;SDS011;9266;51.132;17.062;2022-12-18T03:51:28;47.27;;;22.63;;
18280;SDS011;9266;51.132;17.062;2022-12-18T03:54:04;40.37;;;22.07;;
18280;SDS011;9266;51.132;17.062;2022-12-18T03:56:33;42.87;;;21.43;;
18280;SDS011;9266;51.132;17.062;2022-12-18T03:59:06;38.57;;;21.57;;
18280;SDS011;9266;51.132;17.062;2022-12-18T04:01:35;42.10;;;21.03;;
18280;SDS011;9266;51.132;17.062;2022-12-18T04:04:05;37.97;;;20.30;;
18280;SDS011;9266;51.132;17.062;2022-12-18T04:06:34;40.23;;;21.53;;
18280;SDS011;9266;51.132;17.062;2022-12-18T04:09:03;41.63;;;21.00;;
18280;SDS011;9266;51.132;17.062;2022-12-18T04:11:31;37.77;;;20.97;;
18280;SDS011;9266;51.132;17.062;2022-12-18T04:13:58;37.90;;;19.90;;
18280;SDS011;9266;51.132;17.062;2022-12-18T04:16:26;39.67;;;19.70;;
18280;SDS011;9266;51.132;17.062;2022-12-18T04:18:54;35.80;;;20.93;;
18280;SDS011;9266;51.132;17.062;2022-12-18T04:21:21;39.37;;;20.40;;
18280;SDS011;9266;51.132;17.062;2022-12-18T04:23:48;40.47;;;21.13;;
18280;SDS011;9266;51.132;17.062;2022-12-18T04:26:16;40.73;;;22.03;;
18280;SDS011;9266;51.132;17.062;2022-12-18T04:28:43;44.10;;;21.20;;
18280;SDS011;9266;51.132;17.062;2022-12-18T04:31:10;44.50;;;22.57;;
18280;SDS011;9266;51.132;17.062;2022-12-18T04:33:39;35.03;;;19.63;;
18280;SDS011;9266;51.132;17.062;2022-12-18T04:36:06;36.23;;;19.27;;
18280;SDS011;9266;51.132;17.062;2022-12-18T04:38:33;38.27;;;20.33;;
18280;SDS011;9266;51.132;17.062;2022-12-18T04:41:00;41.23;;;21.57;;
18280;SDS011;9266;51.132;17.062;2022-12-18T04:43:27;49.33;;;22.23;;
18280;SDS011;9266;51.132;17.062;2022-12-18T04:46:00;41.97;;;20.50;;
18280;SDS011;9266;51.132;17.062;2022-12-18T04:48:28;40.77;;;20.63;;
18280;SDS011;9266;51.132;17.062;2022-12-18T04:50:56;46.73;;;20.97;;
18280;SDS011;9266;51.132;17.062;2022-12-18T04:53:24;41.17;;;20.83;;
18280;SDS011;9266;51.132;17.062;2022-12-18T04:55:51;39.03;;;21.37;;
18280;SDS011;9266;51.132;17.062;2022-12-18T04:58:29;39.40;;;21.80;;
18280;SDS011;9266;51.132;17.062;2022-12-18T05:00:56;37.40;;;20.80;;
18280;SDS011;9266;51.132;17.062;2022-12-18T05:03:22;41.37;;;21.80;;
18280;SDS011;9266;51.132;17.062;2022-12-18T05:05:49;42.43;;;20.70;;
18280;SDS011;9266;51.132;17.062;2022-12-18T05:08:18;38.33;;;20.50;;
18280;SDS011;9266;51.132;17.062;2022-12-18T05:10:45;37.43;;;20.37;;
18280;SDS011;9266;51.132;17.062;2022-12-18T05:13:12;40.27;;;17.87;;
18280;SDS011;9266;51.132;17.062;2022-12-18T05:15:40;35.77;;;19.73;;
18280;SDS011;9266;51.132;17.062;2022-12-18T05:18:07;37.77;;;19.77;;
18280;SDS011;9266;51.132;17.062;2022-12-18T05:20:34;34.93;;;17.87;;
18280;SDS011;9266;51.132;17.062;2022-12-18T05:23:01;34.40;;;18.90;;
18280;SDS011;9266;51.132;17.062;2022-12-18T05:25:30;37.77;;;19.33;;
18280;SDS011;9266;51.132;17.062;2022-12-18T05:27:57;37.17;;;19.67;;
18280;SDS011;9266;51.132;17.062;2022-12-18T05:30:24;33.97;;;18.20;;
18280;SDS011;9266;51.132;17.062;2022-12-18T05:32:52;39.87;;;19.30;;
18280;SDS011;9266;51.132;17.062;2022-12-18T05:35:19;39.73;;;21.67;;
18280;SDS011;9266;51.132;17.062;2022-12-18T05:37:46;39.90;;;19.53;;
18280;SDS011;9266;51.132;17.062;2022-12-18T05:40:13;42.13;;;18.87;;
18280;SDS011;9266;51.132;17.062;2022-12-18T05:42:42;40.83;;;20.13;;
18280;SDS011;9266;51.132;17.062;2022-12-18T05:45:09;38.77;;;20.43;;
18280;SDS011;9266;51.132;17.062;2022-12-18T05:47:36;38.13;;;17.67;;
18280;SDS011;9266;51.132;17.062;2022-12-18T05:50:03;33.03;;;17.43;;
18280;SDS011;9266;51.132;17.062;2022-12-18T05:52:31;38.57;;;19.80;;
18280;SDS011;9266;51.132;17.062;2022-12-18T05:54:58;32.70;;;16.43;;
18280;SDS011;9266;51.132;17.062;2022-12-18T05:57:25;34.93;;;17.57;;
18280;SDS011;9266;51.132;17.062;2022-12-18T05:59:54;37.80;;;19.10;;
18280;SDS011;9266;51.132;17.062;2022-12-18T06:02:21;33.40;;;17.00;;
18280;SDS011;9266;51.132;17.062;2022-12-18T06:04:48;41.57;;;20.60;;
18280;SDS011;9266;51.132;17.062;2022-12-18T06:07:15;33.60;;;18.07;;
18280;SDS011;9266;51.132;17.062;2022-12-18T06:09:42;36.07;;;19.70;;
18280;SDS011;9266;51.132;17.062;2022-12-18T06:12:09;37.00;;;20.80;;
18280;SDS011;9266;51.132;17.062;2022-12-18T06:14:36;39.03;;;21.93;;
18280;SDS011;9266;51.132;17.062;2022-12-18T06:17:05;40.03;;;21.03;;
18280;SDS011;9266;51.132;17.062;2022-12-18T06:19:32;39.70;;;21.87;;
18280;SDS011;9266;51.132;17.062;2022-12-18T06:21:59;42.70;;;20.87;;
18280;SDS011;9266;51.132;17.062;2022-12-18T06:24:26;42.17;;;19.77;;
18280;SDS011;9266;51.132;17.062;2022-12-18T06:26:53;41.33;;;21.83;;
18280;SDS011;9266;51.132;17.062;2022-12-18T06:29:20;43.73;;;21.10;;
18280;SDS011;9266;51.132;17.062;2022-12-18T06:31:47;42.30;;;22.50;;
18280;SDS011;9266;51.132;17.062;2022-12-18T06:34:16;45.23;;;22.93;;
18280;SDS011;9266;51.132;17.062;2022-12-18T06:36:42;44.23;;;22.37;;
18280;SDS011;9266;51.132;17.062;2022-12-18T06:39:10;42.00;;;22.57;;
18280;SDS011;9266;51.132;17.062;2022-12-18T06:41:37;44.80;;;21.53;;
18280;SDS011;9266;51.132;17.062;2022-12-18T06:44:04;48.17;;;23.77;;
18280;SDS011;9266;51.132;17.062;2022-12-18T06:46:31;45.13;;;23.27;;
18280;SDS011;9266;51.132;17.062;2022-12-18T06:48:58;43.73;;;22.93;;
18280;SDS011;9266;51.132;17.062;2022-12-18T06:51:27;47.27;;;24.10;;
18280;SDS011;9266;51.132;17.062;2022-12-18T06:53:54;49.17;;;25.03;;
18280;SDS011;9266;51.132;17.062;2022-12-18T06:56:21;45.20;;;23.83;;
18280;SDS011;9266;51.132;17.062;2022-12-18T06:58:48;48.80;;;23.53;;
18280;SDS011;9266;51.132;17.062;2022-12-18T07:01:15;47.20;;;21.83;;
18280;SDS011;9266;51.132;17.062;2022-12-18T07:03:42;49.67;;;23.87;;
18280;SDS011;9266;51.132;17.062;2022-12-18T07:06:12;48.37;;;24.50;;
18280;SDS011;9266;51.132;17.062;2022-12-18T07:08:42;44.63;;;23.93;;
18280;SDS011;9266;51.132;17.062;2022-12-18T07:11:09;44.97;;;23.57;;
18280;SDS011;9266;51.132;17.062;2022-12-18T07:13:37;50.07;;;25.73;;
18280;SDS011;9266;51.132;17.062;2022-12-18T07:16:05;48.00;;;25.07;;
18280;SDS011;9266;51.132;17.062;2022-12-18T07:18:33;49.87;;;24.20;;
18280;SDS011;9266;51.132;17.062;2022-12-18T07:21:02;44.70;;;25.73;;
18280;SDS011;9266;51.132;17.062;2022-12-18T07:23:31;48.90;;;25.90;;
18280;SDS011;9266;51.132;17.062;2022-12-18T07:26:01;48.90;;;24.40;;
18280;SDS011;9266;51.132;17.062;2022-12-18T07:28:29;50.30;;;24.83;;
18280;SDS011;9266;51.132;17.062;2022-12-18T07:30:56;55.43;;;27.13;;
18280;SDS011;9266;51.132;17.062;2022-12-18T07:33:23;46.70;;;25.93;;
18280;SDS011;9266;51.132;17.062;2022-12-18T07:35:51;53.90;;;26.07;;
18280;SDS011;9266;51.132;17.062;2022-12-18T07:38:17;56.53;;;29.07;;
18280;SDS011;9266;51.132;17.062;2022-12-18T07:40:45;58.33;;;28.13;;
18280;SDS011;9266;51.132;17.062;2022-12-18T07:43:13;56.80;;;26.77;;
18280;SDS011;9266;51.132;17.062;2022-12-18T07:45:40;59.20;;;29.30;;
18280;SDS011;9266;51.132;17.062;2022-12-18T07:48:08;57.90;;;29.87;;
18280;SDS011;9266;51.132;17.062;2022-12-18T07:50:35;56.60;;;30.20;;
18280;SDS011;9266;51.132;17.062;2022-12-18T07:53:02;62.90;;;30.13;;
18280;SDS011;9266;51.132;17.062;2022-12-18T07:55:30;68.50;;;32.20;;
18280;SDS011;9266;51.132;17.062;2022-12-18T07:57:59;66.37;;;28.77;;
18280;SDS011;9266;51.132;17.062;2022-12-18T08:00:28;66.03;;;28.73;;
18280;SDS011;9266;51.132;17.062;2022-12-18T08:02:55;60.20;;;29.83;;
18280;SDS011;9266;51.132;17.062;2022-12-18T08:05:22;64.50;;;30.57;;
18280;SDS011;9266;51.132;17.062;2022-12-18T08:07:49;59.30;;;30.23;;
18280;SDS011;9266;51.132;17.062;2022-12-18T08:10:17;64.40;;;29.53;;
18280;SDS011;9266;51.132;17.062;2022-12-18T08:12:44;55.73;;;28.40;;
18280;SDS011;9266;51.132;17.062;2022-12-18T08:15:11;54.53;;;28.77;;
18280;SDS011;9266;51.132;17.062;2022-12-18T08:17:39;54.10;;;28.63;;
18280;SDS011;9266;51.132;17.062;2022-12-18T08:20:07;48.67;;;25.43;;
18280;SDS011;9266;51.132;17.062;2022-12-18T08:22:35;46.67;;;25.93;;
18280;SDS011;9266;51.132;17.062;2022-12-18T08:25:02;45.00;;;25.37;;
18280;SDS011;9266;51.132;17.062;2022-12-18T08:27:29;50.30;;;26.13;;
18280;SDS011;9266;51.132;17.062;2022-12-18T08:29:56;44.30;;;23.50;;
18280;SDS011;9266;51.132;17.062;2022-12-18T08:32:24;45.97;;;24.30;;
18280;SDS011;9266;51.132;17.062;2022-12-18T08:34:52;41.83;;;23.47;;
18280;SDS011;9266;51.132;17.062;2022-12-18T08:37:19;38.37;;;21.73;;
18280;SDS011;9266;51.132;17.062;2022-12-18T08:39:46;37.93;;;22.50;;
18280;SDS011;9266;51.132;17.062;2022-12-18T08:42:13;46.70;;;22.23;;
18280;SDS011;9266;51.132;17.062;2022-12-18T08:44:58;39.07;;;22.47;;
18280;SDS011;9266;51.132;17.062;2022-12-18T08:47:25;42.30;;;23.37;;
18280;SDS011;9266;51.132;17.062;2022-12-18T08:49:54;40.10;;;20.77;;
18280;SDS011;9266;51.132;17.062;2022-12-18T08:52:21;37.83;;;20.67;;
18280;SDS011;9266;51.132;17.062;2022-12-18T08:54:48;42.87;;;22.70;;
18280;SDS011;9266;51.132;17.062;2022-12-18T08:57:15;34.67;;;20.47;;
18280;SDS011;9266;51.132;17.062;2022-12-18T08:59:42;39.43;;;23.00;;
18280;SDS011;9266;51.132;17.062;2022-12-18T09:02:09;40.67;;;22.63;;
18280;SDS011;9266;51.132;17.062;2022-12-18T09:04:37;36.00;;;21.47;;
18280;SDS011;9266;51.132;17.062;2022-12-18T09:07:06;38.87;;;20.83;;
18280;SDS011;9266;51.132;17.062;2022-12-18T09:09:34;38.00;;;21.63;;
18280;SDS011;9266;51.132;17.062;2022-12-18T09:12:02;40.23;;;21.67;;
18280;SDS011;9266;51.132;17.062;2022-12-18T09:14:29;37.63;;;21.93;;
18280;SDS011;9266;51.132;17.062;2022-12-18T09:16:56;43.63;;;23.97;;
18280;SDS011;9266;51.132;17.062;2022-12-18T09:19:23;41.17;;;22.37;;
18280;SDS011;9266;51.132;17.062;2022-12-18T09:21:50;40.13;;;21.50;;
18280;SDS011;9266;51.132;17.062;2022-12-18T09:24:19;37.07;;;21.53;;
18280;SDS011;9266;51.132;17.062;2022-12-18T09:26:46;42.07;;;23.03;;
18280;SDS011;9266;51.132;17.062;2022-12-18T09:29:13;41.23;;;21.43;;
18280;SDS011;9266;51.132;17.062;2022-12-18T09:31:40;45.40;;;23.43;;
18280;SDS011;9266;51.132;17.062;2022-12-18T09:34:07;36.90;;;20.27;;
18280;SDS011;9266;51.132;17.062;2022-12-18T09:36:34;36.43;;;18.47;;
18280;SDS011;9266;51.132;17.062;2022-12-18T09:39:02;46.47;;;21.73;;
18280;SDS011;9266;51.132;17.062;2022-12-18T09:41:35;41.23;;;21.87;;
18280;SDS011;9266;51.132;17.062;2022-12-18T09:44:11;37.50;;;19.27;;
18280;SDS011;9266;51.132;17.062;2022-12-18T09:46:45;37.37;;;19.17;;
18280;SDS011;9266;51.132;17.062;2022-12-18T09:49:16;40.00;;;20.80;;
18280;SDS011;9266;51.132;17.062;2022-12-18T09:51:46;39.80;;;22.23;;
18280;SDS011;9266;51.132;17.062;2022-12-18T09:54:18;37.10;;;20.80;;
18280;SDS011;9266;51.132;17.062;2022-12-18T09:56:50;40.03;;;22.13;;
18280;SDS011;9266;51.132;17.062;2022-12-18T09:59:18;30.60;;;16.40;;
18280;SDS011;9266;51.132;17.062;2022-12-18T10:01:49;36.60;;;21.20;;
18280;SDS011;9266;51.132;17.062;2022-12-18T10:04:16;39.67;;;17.97;;
18280;SDS011;9266;51.132;17.062;2022-12-18T10:06:45;30.87;;;18.93;;
18280;SDS011;9266;51.132;17.062;2022-12-18T10:09:20;40.67;;;20.50;;
18280;SDS011;9266;51.132;17.062;2022-12-18T10:11:58;38.53;;;21.03;;
18280;SDS011;9266;51.132;17.062;2022-12-18T10:14:36;36.63;;;20.43;;
18280;SDS011;9266;51.132;17.062;2022-12-18T10:17:13;36.67;;;21.10;;
18280;SDS011;9266;51.132;17.062;2022-12-18T10:19:51;38.90;;;20.93;;
18280;SDS011;9266;51.132;17.062;2022-12-18T10:22:34;43.17;;;23.83;;
18280;SDS011;9266;51.132;17.062;2022-12-18T10:25:15;43.43;;;21.03;;
18280;SDS011;9266;51.132;17.062;2022-12-18T10:27:49;29.07;;;17.27;;
18280;SDS011;9266;51.132;17.062;2022-12-18T10:30:20;31.33;;;18.07;;
18280;SDS011;9266;51.132;17.062;2022-12-18T10:32:48;31.00;;;17.60;;
18280;SDS011;9266;51.132;17.062;2022-12-18T10:35:17;41.30;;;21.93;;
18280;SDS011;9266;51.132;17.062;2022-12-18T10:40:50;42.77;;;22.63;;
18280;SDS011;9266;51.132;17.062;2022-12-18T10:43:21;41.83;;;21.57;;
18280;SDS011;9266;51.132;17.062;2022-12-18T10:46:04;38.03;;;19.43;;
18280;SDS011;9266;51.132;17.062;2022-12-18T10:48:49;44.20;;;20.07;;
18280;SDS011;9266;51.132;17.062;2022-12-18T10:51:19;40.30;;;21.63;;
18280;SDS011;9266;51.132;17.062;2022-12-18T10:53:51;38.73;;;22.33;;
18280;SDS011;9266;51.132;17.062;2022-12-18T10:56:21;39.00;;;22.63;;
18280;SDS011;9266;51.132;17.062;2022-12-18T10:58:56;44.37;;;24.77;;
18280;SDS011;9266;51.132;17.062;2022-12-18T11:01:26;44.93;;;23.17;;
18280;SDS011;9266;51.132;17.062;2022-12-18T11:04:00;43.60;;;23.20;;
18280;SDS011;9266;51.132;17.062;2022-12-18T11:06:34;40.30;;;20.57;;
18280;SDS011;9266;51.132;17.062;2022-12-18T11:09:19;54.47;;;25.10;;
18280;SDS011;9266;51.132;17.062;2022-12-18T11:11:48;45.13;;;22.80;;
18280;SDS011;9266;51.132;17.062;2022-12-18T11:14:20;50.63;;;24.90;;
18280;SDS011;9266;51.132;17.062;2022-12-18T11:16:49;44.50;;;23.10;;
18280;SDS011;9266;51.132;17.062;2022-12-18T11:19:23;43.83;;;21.80;;
18280;SDS011;9266;51.132;17.062;2022-12-18T11:21:58;37.73;;;21.97;;
18280;SDS011;9266;51.132;17.062;2022-12-18T11:24:27;43.43;;;21.30;;
18280;SDS011;9266;51.132;17.062;2022-12-18T11:26:57;49.23;;;25.80;;
18280;SDS011;9266;51.132;17.062;2022-12-18T11:29:34;54.27;;;26.73;;
18280;SDS011;9266;51.132;17.062;2022-12-18T11:35:03;55.80;;;26.20;;
18280;SDS011;9266;51.132;17.062;2022-12-18T11:37:39;47.07;;;24.97;;
18280;SDS011;9266;51.132;17.062;2022-12-18T11:40:11;55.60;;;27.33;;
18280;SDS011;9266;51.132;17.062;2022-12-18T11:42:45;51.13;;;24.40;;
18280;SDS011;9266;51.132;17.062;2022-12-18T11:45:28;54.60;;;24.20;;
18280;SDS011;9266;51.132;17.062;2022-12-18T11:47:59;48.73;;;24.30;;
18280;SDS011;9266;51.132;17.062;2022-12-18T11:50:31;46.37;;;22.97;;
18280;SDS011;9266;51.132;17.062;2022-12-18T11:53:09;48.83;;;24.23;;
18280;SDS011;9266;51.132;17.062;2022-12-18T11:55:40;52.13;;;27.07;;
18280;SDS011;9266;51.132;17.062;2022-12-18T11:58:15;50.30;;;25.33;;
18280;SDS011;9266;51.132;17.062;2022-12-18T12:00:53;50.83;;;24.37;;
18280;SDS011;9266;51.132;17.062;2022-12-18T12:03:38;57.37;;;27.17;;
18280;SDS011;9266;51.132;17.062;2022-12-18T12:06:16;55.60;;;26.70;;
18280;SDS011;9266;51.132;17.062;2022-12-18T12:08:52;52.97;;;27.43;;
18280;SDS011;9266;51.132;17.062;2022-12-18T12:11:28;48.87;;;25.47;;
18280;SDS011;9266;51.132;17.062;2022-12-18T12:14:09;52.47;;;26.10;;
18280;SDS011;9266;51.132;17.062;2022-12-18T12:16:48;45.70;;;23.57;;
18280;SDS011;9266;51.132;17.062;2022-12-18T12:19:27;44.80;;;22.90;;
18280;SDS011;9266;51.132;17.062;2022-12-18T12:22:05;48.10;;;23.90;;
18280;SDS011;9266;51.132;17.062;2022-12-18T12:24:39;44.53;;;21.87;;
18280;SDS011;9266;51.132;17.062;2022-12-18T12:27:18;47.23;;;21.97;;
18280;SDS011;9266;51.132;17.062;2022-12-18T12:29:56;45.13;;;22.17;;
18280;SDS011;9266;51.132;17.062;2022-12-18T12:32:37;42.17;;;22.43;;
18280;SDS011;9266;51.132;17.062;2022-12-18T12:35:21;39.30;;;21.70;;
18280;SDS011;9266;51.132;17.062;2022-12-18T12:37:56;37.90;;;19.70;;
18280;SDS011;9266;51.132;17.062;2022-12-18T12:40:33;42.77;;;21.90;;
18280;SDS011;9266;51.132;17.062;2022-12-18T12:43:07;52.00;;;25.57;;
18280;SDS011;9266;51.132;17.062;2022-12-18T12:45:43;45.43;;;24.43;;
18280;SDS011;9266;51.132;17.062;2022-12-18T12:48:18;54.57;;;25.30;;
18280;SDS011;9266;51.132;17.062;2022-12-18T12:50:57;54.23;;;25.13;;
18280;SDS011;9266;51.132;17.062;2022-12-18T12:53:27;53.03;;;25.33;;
18280;SDS011;9266;51.132;17.062;2022-12-18T12:55:59;61.53;;;27.43;;
18280;SDS011;9266;51.132;17.062;2022-12-18T12:58:29;57.50;;;27.30;;
18280;SDS011;9266;51.132;17.062;2022-12-18T13:01:07;52.30;;;29.13;;
18280;SDS011;9266;51.132;17.062;2022-12-18T13:03:45;57.37;;;27.40;;
18280;SDS011;9266;51.132;17.062;2022-12-18T13:06:19;51.63;;;26.10;;
18280;SDS011;9266;51.132;17.062;2022-12-18T13:08:56;60.70;;;28.30;;
18280;SDS011;9266;51.132;17.062;2022-12-18T13:11:29;52.37;;;24.90;;
18280;SDS011;9266;51.132;17.062;2022-12-18T13:14:22;59.33;;;26.90;;
18280;SDS011;9266;51.132;17.062;2022-12-18T13:17:00;58.60;;;27.63;;
18280;SDS011;9266;51.132;17.062;2022-12-18T13:20:10;50.43;;;27.00;;
18280;SDS011;9266;51.132;17.062;2022-12-18T13:22:40;55.43;;;26.20;;
18280;SDS011;9266;51.132;17.062;2022-12-18T13:28:00;54.87;;;25.77;;
18280;SDS011;9266;51.132;17.062;2022-12-18T13:30:47;46.77;;;24.00;;
18280;SDS011;9266;51.132;17.062;2022-12-18T13:36:25;48.67;;;23.33;;
18280;SDS011;9266;51.132;17.062;2022-12-18T13:39:11;53.13;;;24.67;;
18280;SDS011;9266;51.132;17.062;2022-12-18T13:41:53;50.27;;;23.97;;
18280;SDS011;9266;51.132;17.062;2022-12-18T13:44:56;54.43;;;26.40;;
18280;SDS011;9266;51.132;17.062;2022-12-18T13:47:25;49.43;;;25.23;;
18280;SDS011;9266;51.132;17.062;2022-12-18T13:49:54;45.50;;;24.43;;
18280;SDS011;9266;51.132;17.062;2022-12-18T13:52:22;51.47;;;23.33;;
18280;SDS011;9266;51.132;17.062;2022-12-18T13:54:52;49.93;;;24.93;;
18280;SDS011;9266;51.132;17.062;2022-12-18T13:57:28;42.20;;;20.57;;
18280;SDS011;9266;51.132;17.062;2022-12-18T13:59:58;44.70;;;22.03;;
18280;SDS011;9266;51.132;17.062;2022-12-18T14:02:49;46.73;;;22.30;;
18280;SDS011;9266;51.132;17.062;2022-12-18T14:05:21;46.57;;;23.43;;
18280;SDS011;9266;51.132;17.062;2022-12-18T14:07:48;42.90;;;22.20;;
18280;SDS011;9266;51.132;17.062;2022-12-18T14:10:16;57.13;;;25.80;;
18280;SDS011;9266;51.132;17.062;2022-12-18T14:12:44;54.07;;;26.10;;
18280;SDS011;9266;51.132;17.062;2022-12-18T14:15:24;54.83;;;26.70;;
18280;SDS011;9266;51.132;17.062;2022-12-18T14:17:59;46.13;;;23.63;;
18280;SDS011;9266;51.132;17.062;2022-12-18T14:20:28;53.07;;;27.03;;
18280;SDS011;9266;51.132;17.062;2022-12-18T14:22:57;55.50;;;26.07;;
18280;SDS011;9266;51.132;17.062;2022-12-18T14:25:26;49.20;;;25.43;;
18280;SDS011;9266;51.132;17.062;2022-12-18T14:28:02;52.30;;;24.73;;
18280;SDS011;9266;51.132;17.062;2022-12-18T14:30:37;54.00;;;28.13;;
18280;SDS011;9266;51.132;17.062;2022-12-18T14:33:05;58.77;;;26.27;;
18280;SDS011;9266;51.132;17.062;2022-12-18T14:35:36;53.80;;;25.87;;
18280;SDS011;9266;51.132;17.062;2022-12-18T14:38:14;60.07;;;29.40;;
18280;SDS011;9266;51.132;17.062;2022-12-18T14:40:47;61.80;;;30.30;;
18280;SDS011;9266;51.132;17.062;2022-12-18T14:43:18;60.53;;;28.07;;
18280;SDS011;9266;51.132;17.062;2022-12-18T14:45:48;64.23;;;31.60;;
18280;SDS011;9266;51.132;17.062;2022-12-18T14:48:17;71.17;;;30.73;;
18280;SDS011;9266;51.132;17.062;2022-12-18T14:50:54;54.60;;;26.57;;
18280;SDS011;9266;51.132;17.062;2022-12-18T14:53:23;63.37;;;33.00;;